Time;durP1;ratioP1;P1;durP2;ratioP2;P2;SDS_P1;SDS_P2;PMS_P1;PMS_P2;Temp;Humidity;BMP_temperature;BMP_pressure;BME280_temperature;BME280_humidity;BME280_pressure;Samples;Min_cycle;Max_cycle;Signal;HPM_P1;HPM_P2
2021/01/29 00:01:58;;;;;;;31.02;9.48;;;11.80;87.00;;;;;;4948074;29;20027;-72
2021/01/29 00:04:25;;;;;;;24.48;8.10;;;11.70;86.80;;;;;;4946584;28;20039;-73
2021/01/29 00:06:51;;;;;;;31.65;8.43;;;11.80;87.00;;;;;;4947239;28;20036;-71
2021/01/29 00:09:19;;;;;;;41.67;8.85;;;11.70;86.80;;;;;;4946735;28;20086;-72
2021/01/29 00:11:46;;;;;;;40.25;9.30;;;11.70;86.80;;;;;;4946949;29;20130;-72
2021/01/29 00:14:12;;;;;;;29.25;7.57;;;11.70;86.90;;;;;;4947805;28;20142;-72
2021/01/29 00:16:38;;;;;;;34.53;10.00;;;11.70;86.90;;;;;;4960822;28;20059;-71
2021/01/29 00:19:04;;;;;;;34.92;10.40;;;11.70;86.90;;;;;;4958988;28;20031;-72
2021/01/29 00:21:30;;;;;;;33.28;9.43;;;11.70;86.90;;;;;;4948130;28;20039;-71
2021/01/29 00:23:56;;;;;;;34.25;7.80;;;11.70;86.90;;;;;;4957663;28;20038;-71
2021/01/29 00:26:24;;;;;;;40.40;10.30;;;11.70;86.90;;;;;;4965908;28;20038;-71
2021/01/29 00:28:50;;;;;;;36.78;9.55;;;11.70;87.00;;;;;;4960570;28;20023;-71
2021/01/29 00:31:16;;;;;;;31.77;10.20;;;11.70;87.00;;;;;;4945851;28;20390;-72
2021/01/29 00:33:42;;;;;;;29.88;9.80;;;11.60;86.80;;;;;;4947319;28;20466;-71
2021/01/29 00:36:08;;;;;;;31.92;8.85;;;11.60;86.80;;;;;;4946989;28;20066;-71
2021/01/29 00:38:34;;;;;;;40.22;9.60;;;11.60;86.80;;;;;;4945962;28;20023;-71
2021/01/29 00:41:00;;;;;;;30.23;9.20;;;11.50;86.60;;;;;;4947413;28;20134;-72
2021/01/29 00:43:26;;;;;;;30.58;9.00;;;11.50;86.60;;;;;;4947233;28;20461;-72
2021/01/29 00:45:52;;;;;;;35.33;9.48;;;11.50;86.60;;;;;;4947309;29;20349;-71
2021/01/29 00:48:18;;;;;;;38.15;10.20;;;11.50;86.60;;;;;;4961909;28;20047;-72
2021/01/29 00:50:44;;;;;;;35.15;10.18;;;11.50;86.60;;;;;;4929779;29;20081;-72
2021/01/29 00:53:11;;;;;;;29.15;8.00;;;11.50;86.70;;;;;;4945567;28;20524;-73
2021/01/29 00:55:38;;;;;;;37.80;9.68;;;11.40;86.50;;;;;;4946084;28;20035;-73
2021/01/29 00:58:10;;;;;;;31.10;9.10;;;11.40;86.50;;;;;;4930631;28;20027;-74
2021/01/29 01:00:52;;;;;;;34.63;10.65;;;11.40;86.60;;;;;;4947248;28;20035;-71
2021/01/29 01:03:23;;;;;;;32.45;10.10;;;11.40;86.60;;;;;;4945555;28;20043;-73
2021/01/29 01:05:49;;;;;;;44.88;8.77;;;11.40;86.60;;;;;;4947047;28;20043;-72
2021/01/29 01:08:30;;;;;;;31.38;8.75;;;11.30;86.50;;;;;;4948877;28;20039;-72
2021/01/29 01:11:22;;;;;;;33.80;9.07;;;11.30;86.50;;;;;;4965373;28;20516;-71
2021/01/29 01:14:24;;;;;;;31.33;8.63;;;11.30;86.60;;;;;;4962894;28;20263;-72
2021/01/29 01:17:08;;;;;;;34.67;9.50;;;11.30;86.60;;;;;;4963878;28;20138;-70
2021/01/29 01:19:58;;;;;;;44.15;10.10;;;11.20;86.40;;;;;;4980645;28;20026;-71
2021/01/29 01:22:24;;;;;;;28.88;8.68;;;11.20;86.50;;;;;;4953220;28;20458;-71
2021/01/29 01:24:59;;;;;;;33.00;9.63;;;11.20;86.50;;;;;;4945074;28;20050;-71
2021/01/29 01:27:26;;;;;;;29.08;9.30;;;11.20;86.50;;;;;;4945369;28;20053;-73
2021/01/29 01:30:21;;;;;;;37.45;8.98;;;11.20;86.60;;;;;;4945126;28;20402;-72
2021/01/29 01:32:48;;;;;;;31.25;9.00;;;11.20;86.60;;;;;;4945094;28;20035;-70
2021/01/29 01:35:33;;;;;;;;;;;11.20;86.60;;;;;;4946996;28;20197;-71
2021/01/29 01:37:59;;;;;;;35.15;7.93;;;11.20;86.60;;;;;;4961307;28;20281;-72
2021/01/29 01:40:57;;;;;;;33.38;8.65;;;11.20;86.50;;;;;;4957116;28;20027;-71
2021/01/29 01:43:31;;;;;;;31.77;7.97;;;11.20;86.50;;;;;;4944711;28;20035;-73
2021/01/29 01:46:18;;;;;;;30.05;9.40;;;11.10;86.40;;;;;;4946466;28;20193;-71
2021/01/29 01:49:13;;;;;;;32.70;8.32;;;11.20;86.50;;;;;;4946532;28;20229;-71
2021/01/29 01:51:46;;;;;;;31.10;8.40;;;11.10;86.40;;;;;;4946462;29;20054;-71
2021/01/29 01:54:28;;;;;;;27.88;8.75;;;11.10;86.40;;;;;;4944810;28;20038;-71
2021/01/29 01:56:58;;;;;;;34.90;8.80;;;11.10;86.40;;;;;;4946459;29;20462;-71
2021/01/29 01:59:31;;;;;;;36.40;9.32;;;11.10;86.90;;;;;;4946485;28;20038;-71
2021/01/29 02:02:29;;;;;;;30.95;10.40;;;11.10;86.50;;;;;;4952567;28;20044;-72
2021/01/29 02:05:28;;;;;;;35.40;10.02;;;11.10;86.50;;;;;;4946639;29;20138;-71
2021/01/29 02:07:58;;;;;;;31.08;9.48;;;11.10;86.50;;;;;;4946132;28;20035;-72
2021/01/29 02:10:42;;;;;;;36.78;10.05;;;11.10;86.50;;;;;;4944843;28;20131;-71
2021/01/29 02:13:12;;;;;;;31.65;7.78;;;11.10;86.50;;;;;;4945158;28;20191;-72
2021/01/29 02:16:32;;;;;;;30.95;8.48;;;11.10;86.50;;;;;;4949814;28;20037;-72
2021/01/29 02:19:36;;;;;;;31.40;9.18;;;11.10;86.50;;;;;;4949443;28;20458;-71
2021/01/29 02:22:47;;;;;;;28.05;8.75;;;11.10;86.50;;;;;;4960710;28;20508;-71
2021/01/29 02:26:05;;;;;;;28.15;9.07;;;11.10;86.50;;;;;;4939780;29;20047;-71
2021/01/29 02:29:16;;;;;;;34.00;9.90;;;11.10;86.50;;;;;;4946587;28;20472;-71
2021/01/29 02:32:17;;;;;;;30.20;8.40;;;11.00;86.30;;;;;;4960119;28;20039;-74
2021/01/29 02:35:01;;;;;;;32.22;8.80;;;11.00;86.30;;;;;;4948910;29;20035;-72
2021/01/29 02:38:00;;;;;;;34.17;8.57;;;11.10;86.50;;;;;;4955908;28;20122;-73
2021/01/29 02:41:15;;;;;;;31.40;8.77;;;11.00;86.30;;;;;;4962867;28;20059;-72
2021/01/29 02:43:58;;;;;;;31.38;8.30;;;11.00;86.40;;;;;;4956391;28;20387;-71
2021/01/29 02:46:57;;;;;;;35.55;6.82;;;11.00;86.40;;;;;;4956350;28;20049;-72
2021/01/29 02:50:09;;;;;;;28.90;8.10;;;11.00;86.30;;;;;;4953202;29;20035;-72
2021/01/29 02:53:19;;;;;;;30.42;7.13;;;11.00;86.30;;;;;;4962721;28;20530;-72
2021/01/29 02:56:16;;;;;;;22.67;7.53;;;11.00;86.30;;;;;;4933978;29;20107;-72
2021/01/29 02:59:35;;;;;;;29.02;7.22;;;11.00;86.40;;;;;;4946997;28;20034;-71
2021/01/29 03:02:44;;;;;;;29.38;7.03;;;10.90;86.20;;;;;;4939934;29;20039;-72
2021/01/29 03:05:27;;;;;;;22.15;6.13;;;11.00;86.40;;;;;;4933595;29;20479;-73
2021/01/29 03:08:04;;;;;;;25.08;6.70;;;10.90;86.20;;;;;;4933282;29;20309;-73
2021/01/29 03:11:01;;;;;;;25.25;6.93;;;10.90;86.20;;;;;;4934777;29;20563;-72
2021/01/29 03:13:55;;;;;;;21.00;6.72;;;10.90;86.30;;;;;;4934017;29;20063;-72
2021/01/29 03:16:52;;;;;;;18.30;6.53;;;10.90;86.30;;;;;;4959560;28;20070;-73
2021/01/29 03:20:00;;;;;;;17.80;6.07;;;10.90;86.30;;;;;;4973413;28;20105;-71
2021/01/29 03:22:55;;;;;;;27.80;8.52;;;10.90;86.30;;;;;;4972996;28;20508;-74
2021/01/29 03:26:06;;;;;;;28.48;7.25;;;10.90;86.30;;;;;;4970157;28;20118;-71
2021/01/29 03:28:58;;;;;;;;;;;10.90;86.30;;;;;;4973584;28;20588;-72
2021/01/29 03:31:47;;;;;;;24.42;7.60;;;10.90;86.30;;;;;;4973032;28;19938;-71
2021/01/29 03:34:51;;;;;;;23.23;6.30;;;10.90;86.20;;;;;;4973024;28;20030;-74
2021/01/29 03:37:44;;;;;;;23.05;6.18;;;10.90;86.20;;;;;;4971850;28;20043;-72
2021/01/29 03:40:41;;;;;;;25.50;7.68;;;10.90;86.20;;;;;;4970210;28;20041;-72
2021/01/29 03:43:29;;;;;;;25.65;7.15;;;10.90;86.20;;;;;;4971783;28;20046;-73
2021/01/29 03:46:29;;;;;;;24.65;6.60;;;10.90;86.30;;;;;;4971402;28;20051;-71
2021/01/29 03:49:45;;;;;;;26.20;6.82;;;10.90;86.30;;;;;;4971422;28;20090;-73
2021/01/29 03:52:52;;;;;;;18.35;6.57;;;10.80;86.20;;;;;;4957391;28;20716;-72
2021/01/29 03:55:46;;;;;;;17.65;6.72;;;10.80;86.20;;;;;;4971302;28;20027;-71
2021/01/29 03:58:31;;;;;;;;;;;10.80;86.20;;;;;;4973204;28;20601;-72
2021/01/29 04:01:51;;;;;;;27.48;5.40;;;10.80;86.20;;;;;;4969756;28;19910;-73
2021/01/29 04:05:07;;;;;;;26.50;6.70;;;10.80;86.10;;;;;;4947767;28;20118;-72
2021/01/29 04:07:56;;;;;;;25.25;6.70;;;10.80;86.10;;;;;;4971309;28;20134;-72
2021/01/29 04:10:45;;;;;;;29.33;6.43;;;10.80;86.20;;;;;;4972421;28;20066;-72
2021/01/29 04:13:44;;;;;;;20.05;5.63;;;10.80;86.20;;;;;;4972610;28;20097;-75
2021/01/29 04:16:19;;;;;;;22.33;7.05;;;10.80;86.20;;;;;;4961607;28;20030;-72
2021/01/29 04:18:52;;;;;;;19.20;5.97;;;10.80;86.20;;;;;;4953297;28;20046;-70
2021/01/29 04:21:27;;;;;;;18.85;5.78;;;10.80;86.30;;;;;;4952987;28;20028;-72
2021/01/29 04:24:05;;;;;;;21.33;6.10;;;10.80;86.30;;;;;;4952508;28;20129;-72
2021/01/29 04:26:49;;;;;;;15.70;5.57;;;10.80;86.30;;;;;;4952902;28;20466;-74
2021/01/29 04:29:20;;;;;;;18.73;6.00;;;10.80;86.30;;;;;;4967447;28;20035;-71
2021/01/29 04:31:49;;;;;;;23.15;5.57;;;10.80;86.80;;;;;;4951648;28;20035;-72
2021/01/29 04:34:23;;;;;;;19.88;5.50;;;10.80;86.30;;;;;;4952860;28;20035;-74
2021/01/29 04:36:53;;;;;;;21.42;6.60;;;10.80;86.30;;;;;;4951382;28;20134;-73
2021/01/29 04:39:41;;;;;;;21.33;5.82;;;10.80;86.30;;;;;;4952711;28;20111;-73
2021/01/29 04:42:29;;;;;;;18.95;4.40;;;10.80;86.30;;;;;;4966914;28;20035;-72
2021/01/29 04:45:28;;;;;;;15.52;5.10;;;10.80;86.30;;;;;;4952583;28;20039;-72
2021/01/29 04:48:24;;;;;;;16.85;4.65;;;10.80;86.20;;;;;;4952361;28;20479;-73
2021/01/29 04:51:05;;;;;;;16.95;5.45;;;10.80;86.20;;;;;;4951291;28;20198;-72
2021/01/29 04:53:54;;;;;;;24.75;5.70;;;10.80;86.20;;;;;;4950463;29;20132;-72
2021/01/29 04:56:41;;;;;;;23.27;6.70;;;10.70;86.00;;;;;;4952215;28;20039;-73
2021/01/29 04:59:15;;;;;;;20.02;5.28;;;10.70;86.00;;;;;;4952403;28;20521;-73
2021/01/29 05:02:18;;;;;;;15.68;5.05;;;10.70;86.60;;;;;;4952434;28;20054;-74
2021/01/29 05:05:46;;;;;;;20.45;5.88;;;10.70;86.10;;;;;;4951207;28;20113;-71
2021/01/29 05:09:07;;;;;;;15.68;5.25;;;10.70;86.10;;;;;;4952113;28;20031;-73
2021/01/29 05:12:26;;;;;;;33.47;5.47;;;10.70;86.10;;;;;;4954713;28;20062;-71
2021/01/29 05:15:11;;;;;;;24.27;6.25;;;10.70;86.00;;;;;;4966773;28;20023;-72
2021/01/29 05:18:05;;;;;;;22.42;6.03;;;10.70;86.00;;;;;;4932852;28;20055;-71
2021/01/29 05:20:37;;;;;;;16.75;5.03;;;10.70;86.00;;;;;;4945471;28;20135;-71
2021/01/29 05:23:17;;;;;;;16.08;4.47;;;10.70;86.00;;;;;;4966412;28;20027;-72
2021/01/29 05:26:17;;;;;;;13.13;6.18;;;10.70;86.00;;;;;;4951755;29;20585;-72
2021/01/29 05:28:50;;;;;;;19.38;5.63;;;10.70;86.00;;;;;;4966495;28;20027;-72
2021/01/29 05:31:27;;;;;;;15.13;4.60;;;10.70;86.00;;;;;;4934493;29;20043;-69
2021/01/29 05:34:35;;;;;;;20.77;5.03;;;10.70;86.00;;;;;;4951719;29;20505;-72
2021/01/29 05:37:23;;;;;;;13.02;3.95;;;10.70;86.00;;;;;;4953727;28;20041;-72
2021/01/29 05:40:10;;;;;;;14.02;4.55;;;10.60;85.80;;;;;;4950523;29;20042;-73
2021/01/29 05:43:20;;;;;;;19.08;4.93;;;10.60;85.80;;;;;;4951486;28;20103;-73
2021/01/29 05:46:09;;;;;;;19.42;4.82;;;10.60;85.90;;;;;;4968225;28;20043;-71
2021/01/29 05:49:06;;;;;;;14.77;4.45;;;10.60;85.80;;;;;;4962754;28;20390;-73
2021/01/29 05:52:10;;;;;;;15.30;4.32;;;10.60;85.80;;;;;;4948720;28;20049;-71
2021/01/29 05:54:48;;;;;;;14.57;4.45;;;10.60;85.90;;;;;;4945720;28;20027;-75
2021/01/29 05:57:51;;;;;;;13.02;4.00;;;10.60;85.90;;;;;;4954266;28;20348;-71
2021/01/29 06:00:36;;;;;;;15.57;4.30;;;10.60;85.90;;;;;;4955186;28;20613;-71
2021/01/29 06:03:11;;;;;;;10.02;4.30;;;10.60;85.90;;;;;;4940058;28;20043;-70
2021/01/29 06:05:43;;;;;;;10.43;4.28;;;10.50;85.80;;;;;;4952227;28;20044;-71
2021/01/29 06:08:36;;;;;;;16.55;4.05;;;10.50;85.80;;;;;;4952829;28;20138;-71
2021/01/29 06:11:18;;;;;;;15.73;3.33;;;10.50;85.80;;;;;;4944025;29;20150;-70
2021/01/29 06:13:55;;;;;;;15.02;4.45;;;10.50;85.80;;;;;;4960597;28;20035;-71
2021/01/29 06:16:57;;;;;;;12.63;4.20;;;10.50;85.80;;;;;;4974584;28;20035;-70
2021/01/29 06:19:43;;;;;;;14.55;4.30;;;10.40;85.70;;;;;;4934494;28;20356;-71
2021/01/29 06:22:35;;;;;;;13.75;4.20;;;10.40;85.70;;;;;;4937863;28;20508;-72
2021/01/29 06:25:19;;;;;;;8.82;3.42;;;10.40;85.70;;;;;;4930031;29;20521;-74
2021/01/29 06:28:03;;;;;;;;;;;10.40;85.70;;;;;;4941108;28;20122;-71
2021/01/29 06:30:49;;;;;;;21.95;6.22;;;10.40;85.80;;;;;;4958579;28;20005;-73
2021/01/29 06:33:17;;;;;;;11.82;4.32;;;10.40;85.70;;;;;;4953301;28;20032;-71
2021/01/29 06:36:05;;;;;;;15.30;3.90;;;10.40;85.80;;;;;;4957890;28;20572;-73
2021/01/29 06:38:31;;;;;;;12.80;3.47;;;10.40;85.80;;;;;;4953570;28;20113;-70
2021/01/29 06:41:03;;;;;;;18.50;5.28;;;10.40;85.80;;;;;;4932430;29;20483;-73
2021/01/29 06:43:32;;;;;;;13.23;3.95;;;10.30;85.70;;;;;;4935310;28;20186;-72
2021/01/29 06:46:06;;;;;;;17.05;5.60;;;10.40;85.90;;;;;;4962558;28;20047;-71
2021/01/29 06:48:58;;;;;;;19.15;5.68;;;10.40;85.90;;;;;;4947358;28;20051;-72
2021/01/29 06:51:24;;;;;;;15.68;4.35;;;10.40;86.00;;;;;;4949940;28;20050;-70
2021/01/29 06:53:56;;;;;;;16.10;4.72;;;10.40;85.90;;;;;;4947796;28;20040;-70
2021/01/29 06:56:27;;;;;;;17.85;4.38;;;10.40;86.00;;;;;;4949216;28;20609;-73
2021/01/29 06:58:59;;;;;;;13.65;5.00;;;10.40;86.00;;;;;;4948078;28;20851;-71
2021/01/29 07:01:52;;;;;;;18.02;4.72;;;10.40;86.00;;;;;;4949158;28;20454;-73
2021/01/29 07:05:04;;;;;;;14.73;4.63;;;10.40;86.00;;;;;;4949047;29;20537;-70
2021/01/29 07:08:07;;;;;;;16.95;4.30;;;10.40;86.00;;;;;;4955526;28;20395;-77
2021/01/29 07:11:22;;;;;;;14.95;4.95;;;10.40;86.00;;;;;;4960213;28;20051;-71
2021/01/29 07:14:24;;;;;;;11.02;3.88;;;10.40;86.00;;;;;;4958247;28;20034;-72
2021/01/29 07:17:02;;;;;;;13.48;3.92;;;10.30;85.80;;;;;;4990652;28;20123;-72
2021/01/29 07:19:47;;;;;;;8.48;3.47;;;10.30;85.80;;;;;;4948896;28;20573;-70
2021/01/29 07:22:32;;;;;;;14.10;4.05;;;10.40;86.00;;;;;;4931394;28;20053;-70
2021/01/29 07:25:17;;;;;;;12.32;3.50;;;10.40;86.00;;;;;;4948590;28;20459;-70
2021/01/29 07:27:51;;;;;;;19.58;5.32;;;10.30;85.90;;;;;;4948286;28;20035;-71
2021/01/29 07:31:02;;;;;;;15.30;3.42;;;10.40;86.10;;;;;;4946585;29;20122;-70
2021/01/29 07:34:10;;;;;;;14.75;3.55;;;10.30;86.00;;;;;;4945730;28;20105;-71
2021/01/29 07:37:04;;;;;;;10.23;4.22;;;10.30;86.00;;;;;;4945439;29;20479;-72
2021/01/29 07:40:14;;;;;;;14.10;3.85;;;10.30;86.00;;;;;;4947267;28;20102;-70
2021/01/29 07:43:19;;;;;;;15.05;4.68;;;10.30;86.00;;;;;;4945566;28;20121;-71
2021/01/29 07:46:22;;;;;;;17.05;4.70;;;10.40;86.20;;;;;;4907319;29;20412;-70
2021/01/29 07:49:25;;;;;;;15.65;3.95;;;10.30;86.00;;;;;;4948222;28;20537;-70
2021/01/29 07:51:54;;;;;;;13.55;4.82;;;10.40;86.20;;;;;;4962835;28;20394;-70
2021/01/29 07:54:43;;;;;;;23.17;5.50;;;10.30;86.00;;;;;;4946731;28;20031;-70
2021/01/29 07:57:47;;;;;;;22.17;5.95;;;10.40;86.30;;;;;;4962456;28;20130;-71
2021/01/29 08:00:37;;;;;;;14.20;5.55;;;10.40;86.30;;;;;;4946780;29;20089;-70
2021/01/29 08:03:19;;;;;;;22.98;6.22;;;10.40;86.30;;;;;;4946420;28;20090;-73
2021/01/29 08:06:08;;;;;;;24.08;6.07;;;10.40;86.30;;;;;;4946623;28;20054;-71
2021/01/29 08:08:46;;;;;;;24.40;6.47;;;10.40;86.30;;;;;;4946701;28;20035;-71
2021/01/29 08:11:15;;;;;;;29.23;6.63;;;10.40;86.40;;;;;;4947572;29;20043;-70
2021/01/29 08:13:59;;;;;;;25.40;6.63;;;10.40;86.30;;;;;;4946095;28;20038;-71
2021/01/29 08:16:43;;;;;;;20.75;5.40;;;10.40;86.40;;;;;;4973394;28;20038;-72
2021/01/29 08:19:16;;;;;;;22.58;5.53;;;10.40;86.40;;;;;;4954123;28;20035;-70
2021/01/29 08:22:10;;;;;;;15.00;5.18;;;10.40;86.40;;;;;;4947711;28;20133;-71
2021/01/29 08:24:48;;;;;;;17.33;5.90;;;10.50;86.60;;;;;;4962477;28;20035;-71
2021/01/29 08:27:17;;;;;;;18.60;6.35;;;10.50;86.60;;;;;;4929487;29;20740;-71
2021/01/29 08:30:15;;;;;;;17.25;4.35;;;10.50;86.60;;;;;;4966785;28;20249;-71
2021/01/29 08:33:18;;;;;;;14.40;4.95;;;10.50;86.60;;;;;;4957285;28;20031;-71
2021/01/29 08:36:03;;;;;;;16.10;4.50;;;10.50;86.50;;;;;;4962610;28;20106;-71
2021/01/29 08:38:41;;;;;;;18.08;5.75;;;10.50;86.60;;;;;;4946341;28;20035;-73
2021/01/29 08:41:28;;;;;;;16.83;5.50;;;10.60;86.70;;;;;;4945956;28;20035;-71
2021/01/29 08:44:09;;;;;;;22.83;6.45;;;10.60;86.80;;;;;;4947593;28;20031;-73
2021/01/29 08:46:54;;;;;;;20.13;5.43;;;10.60;86.70;;;;;;4947112;28;20424;-71
2021/01/29 08:49:54;;;;;;;17.77;4.65;;;10.60;86.70;;;;;;4947280;28;20406;-73
2021/01/29 08:52:31;;;;;;;19.38;5.53;;;10.60;86.70;;;;;;4950328;28;20034;-72
2021/01/29 08:55:14;;;;;;;17.23;4.80;;;10.60;86.70;;;;;;4966290;28;20038;-72
2021/01/29 08:57:55;;;;;;;18.38;5.03;;;10.60;86.70;;;;;;4965100;28;20034;-71
2021/01/29 09:00:32;;;;;;;13.00;4.85;;;10.60;86.70;;;;;;4947133;29;20074;-72
2021/01/29 09:03:07;;;;;;;15.65;5.57;;;10.60;86.70;;;;;;4947122;28;20122;-70
2021/01/29 09:05:34;;;;;;;17.60;5.75;;;10.60;86.70;;;;;;4946432;28;20459;-72
2021/01/29 09:08:04;;;;;;;9.38;4.72;;;10.60;86.70;;;;;;4945684;28;20031;-72
2021/01/29 09:10:50;;;;;;;13.88;4.82;;;10.60;86.80;;;;;;4946944;28;20031;-71
2021/01/29 09:13:21;;;;;;;20.15;5.32;;;10.60;86.80;;;;;;4946874;28;20438;-71
2021/01/29 09:15:50;;;;;;;11.05;4.15;;;10.70;87.00;;;;;;4950729;28;20054;-72
2021/01/29 09:18:50;;;;;;;15.90;5.15;;;10.70;87.00;;;;;;4961114;28;20114;-70
2021/01/29 09:21:16;;;;;;;13.50;4.55;;;10.70;87.10;;;;;;4939760;28;20109;-71
2021/01/29 09:23:55;;;;;;;16.23;4.55;;;10.70;87.00;;;;;;4946369;28;20502;-72
2021/01/29 09:26:31;;;;;;;13.23;4.22;;;10.80;87.20;;;;;;4945311;29;20055;-71
2021/01/29 09:29:13;;;;;;;12.82;5.13;;;10.80;87.20;;;;;;4945038;28;20023;-71
2021/01/29 09:31:41;;;;;;;11.20;4.32;;;10.80;87.20;;;;;;4945298;29;20466;-71
2021/01/29 09:34:18;;;;;;;13.13;5.10;;;10.90;87.30;;;;;;4946529;28;20174;-70
2021/01/29 09:36:51;;;;;;;9.70;4.63;;;10.90;87.20;;;;;;4945391;29;20035;-71
2021/01/29 09:39:34;;;;;;;8.82;4.25;;;10.90;87.10;;;;;;4945412;28;20038;-70
2021/01/29 09:42:25;;;;;;;12.45;3.65;;;11.00;87.30;;;;;;4944594;28;20442;-71
2021/01/29 09:45:01;;;;;;;10.50;4.38;;;11.00;87.30;;;;;;4946528;28;20126;-70
2021/01/29 09:47:30;;;;;;;13.30;4.80;;;11.00;87.20;;;;;;4946189;28;20067;-70
2021/01/29 09:50:04;;;;;;;14.05;5.03;;;11.10;87.30;;;;;;4961047;28;20043;-71
2021/01/29 09:52:56;;;;;;;14.13;5.05;;;11.10;87.30;;;;;;4944719;28;20023;-71
2021/01/29 09:55:30;;;;;;;11.77;4.10;;;11.10;87.10;;;;;;4961064;28;20385;-71
2021/01/29 09:58:11;;;;;;;10.85;4.05;;;11.20;87.30;;;;;;4944558;28;20351;-75
2021/01/29 10:00:39;;;;;;;12.23;4.25;;;11.20;87.20;;;;;;4944920;28;20031;-70
2021/01/29 10:03:10;;;;;;;15.52;3.97;;;11.20;87.60;;;;;;4945467;28;20101;-71
2021/01/29 10:05:56;;;;;;;11.75;4.13;;;11.30;87.20;;;;;;4946387;29;20043;-70
2021/01/29 10:08:42;;;;;;;9.10;3.88;;;11.30;87.10;;;;;;4946654;28;20034;-71
2021/01/29 10:11:27;;;;;;;6.22;3.38;;;11.40;87.70;;;;;;4945855;28;20023;-69
2021/01/29 10:14:14;;;;;;;8.05;3.55;;;11.40;87.10;;;;;;4944344;28;20043;-71
2021/01/29 10:17:17;;;;;;;11.85;3.60;;;11.40;87.10;;;;;;4957061;28;20134;-73
2021/01/29 10:19:53;;;;;;;8.10;3.88;;;11.50;87.20;;;;;;4948285;28;20032;-70
2021/01/29 10:22:43;;;;;;;10.98;3.95;;;11.50;87.10;;;;;;4945972;28;20359;-72
2021/01/29 10:25:24;;;;;;;9.02;3.42;;;11.50;87.10;;;;;;4944254;29;20043;-72
2021/01/29 10:28:05;;;;;;;11.43;3.90;;;11.60;87.20;;;;;;4945163;28;20062;-72
2021/01/29 10:30:46;;;;;;;6.93;3.50;;;11.70;87.30;;;;;;4944477;28;20035;-73
2021/01/29 10:33:14;;;;;;;7.95;3.42;;;11.70;87.20;;;;;;4944138;28;20249;-71
2021/01/29 10:36:04;;;;;;;7.97;3.58;;;11.80;87.20;;;;;;4945623;29;20027;-74
2021/01/29 10:39:04;;;;;;;7.22;3.80;;;11.80;87.20;;;;;;4945381;28;20464;-75
2021/01/29 10:41:42;;;;;;;11.43;4.38;;;11.90;87.50;;;;;;4942371;28;20134;-71
2021/01/29 10:44:11;;;;;;;12.30;4.55;;;12.00;87.60;;;;;;4945633;28;20035;-71
2021/01/29 10:46:42;;;;;;;8.02;3.92;;;12.10;87.80;;;;;;4928118;29;20142;-71
2021/01/29 10:49:23;;;;;;;9.52;4.28;;;12.30;88.10;;;;;;4944130;28;20038;-71
2021/01/29 10:52:08;;;;;;;8.98;4.32;;;12.30;87.90;;;;;;4963685;28;20110;-70
2021/01/29 10:54:40;;;;;;;11.43;4.30;;;12.40;87.80;;;;;;4930272;29;20176;-72
2021/01/29 10:57:15;;;;;;;12.32;3.88;;;12.50;87.80;;;;;;4960282;28;20035;-70
2021/01/29 10:59:59;;;;;;;11.30;3.75;;;12.60;87.80;;;;;;4945172;28;20102;-70
2021/01/29 11:02:38;;;;;;;;;;;12.60;87.70;;;;;;4948086;28;20046;-72
2021/01/29 11:05:10;;;;;;;9.85;4.32;;;12.70;87.80;;;;;;4947729;28;19922;-70
2021/01/29 11:07:40;;;;;;;12.95;4.00;;;12.70;87.60;;;;;;4963730;28;20118;-72
2021/01/29 11:10:22;;;;;;;10.77;4.10;;;12.80;87.70;;;;;;4948712;29;20367;-72
2021/01/29 11:13:03;;;;;;;7.25;3.65;;;12.90;87.90;;;;;;4947558;28;20122;-72
2021/01/29 11:16:01;;;;;;;8.50;3.72;;;13.00;87.90;;;;;;4950869;28;20087;-71
2021/01/29 11:18:34;;;;;;;7.45;3.92;;;13.00;87.80;;;;;;4961824;28;20121;-71
2021/01/29 11:21:35;;;;;;;14.50;5.07;;;13.10;87.90;;;;;;4947384;29;20047;-72
2021/01/29 11:24:38;;;;;;;7.75;3.85;;;13.10;87.80;;;;;;4947085;28;20035;-73
2021/01/29 11:27:35;;;;;;;10.35;4.80;;;13.10;87.80;;;;;;4948626;29;20533;-72
2021/01/29 11:30:19;;;;;;;12.63;4.75;;;13.20;87.90;;;;;;4963320;28;20197;-73
2021/01/29 11:32:54;;;;;;;10.68;3.78;;;13.30;88.00;;;;;;4948447;28;20027;-71
2021/01/29 11:35:38;;;;;;;13.27;3.90;;;13.30;87.80;;;;;;4946898;28;20543;-72
2021/01/29 11:38:22;;;;;;;12.68;4.85;;;13.40;87.90;;;;;;4948074;28;20415;-71
2021/01/29 11:40:59;;;;;;;7.57;3.85;;;13.40;87.80;;;;;;4962611;28;20027;-71
2021/01/29 11:44:01;;;;;;;7.03;3.72;;;13.50;87.80;;;;;;4930889;29;20027;-72
2021/01/29 11:46:52;;;;;;;6.53;3.75;;;13.50;87.80;;;;;;4930212;29;20039;-73
2021/01/29 11:49:27;;;;;;;5.70;3.42;;;13.50;87.70;;;;;;4950435;28;20033;-71
2021/01/29 11:52:00;;;;;;;7.90;3.50;;;13.50;87.60;;;;;;4948634;28;20434;-73
2021/01/29 11:54:45;;;;;;;5.70;3.42;;;13.50;87.60;;;;;;4948520;28;20645;-72
2021/01/29 11:57:15;;;;;;;6.13;3.60;;;13.50;87.50;;;;;;4947378;28;20102;-73
2021/01/29 11:59:45;;;;;;;6.18;3.72;;;13.60;87.70;;;;;;4947626;28;20035;-72
2021/01/29 12:02:27;;;;;;;9.43;5.35;;;13.60;87.50;;;;;;4929682;28;20033;-72
2021/01/29 12:05:26;;;;;;;7.72;4.75;;;13.60;87.50;;;;;;4948468;28;20031;-73
2021/01/29 12:08:05;;;;;;;12.00;5.38;;;13.70;87.60;;;;;;4946469;28;20035;-72
2021/01/29 12:10:56;;;;;;;9.52;5.10;;;13.80;87.70;;;;;;4947667;29;20491;-72
2021/01/29 12:13:42;;;;;;;16.27;6.13;;;13.80;87.50;;;;;;4958036;28;20589;-72
2021/01/29 12:16:28;;;;;;;8.02;4.72;;;13.80;87.40;;;;;;4967055;28;20406;-74
2021/01/29 12:18:56;;;;;;;11.27;5.95;;;13.80;87.30;;;;;;4956284;28;20038;-73
2021/01/29 12:21:34;;;;;;;7.78;5.25;;;13.80;87.30;;;;;;4947683;29;20399;-73
2021/01/29 12:24:34;;;;;;;8.13;5.18;;;13.80;87.30;;;;;;4947454;28;20129;-74
2021/01/29 12:27:09;;;;;;;6.80;4.97;;;13.70;87.10;;;;;;4947373;28;20055;-72
2021/01/29 12:29:48;;;;;;;6.82;4.63;;;13.70;87.10;;;;;;4946111;28;20042;-73
2021/01/29 12:32:35;;;;;;;8.10;4.93;;;13.70;87.10;;;;;;4947106;28;20515;-73
2021/01/29 12:35:06;;;;;;;7.60;4.82;;;13.70;87.20;;;;;;4947188;28;20490;-72
2021/01/29 12:38:04;;;;;;;8.25;4.65;;;13.70;87.20;;;;;;4929917;29;20503;-74
2021/01/29 12:40:33;;;;;;;6.88;4.70;;;13.70;87.20;;;;;;4962331;28;20046;-73
2021/01/29 12:43:02;;;;;;;6.03;4.32;;;13.60;87.00;;;;;;4947514;28;20070;-72
2021/01/29 12:45:42;;;;;;;8.30;4.70;;;13.70;87.20;;;;;;4946002;29;20438;-72
2021/01/29 12:48:19;;;;;;;4.82;3.78;;;13.70;87.10;;;;;;4947230;28;20051;-73
2021/01/29 12:51:11;;;;;;;5.65;4.35;;;13.70;87.10;;;;;;4946124;29;20122;-75
2021/01/29 12:53:40;;;;;;;7.40;4.30;;;13.70;87.10;;;;;;4929415;29;20027;-72
2021/01/29 12:56:18;;;;;;;4.68;3.95;;;13.70;87.00;;;;;;4945749;28;20142;-71
2021/01/29 12:58:57;;;;;;;7.43;3.42;;;13.70;86.80;;;;;;4945097;28;20046;-72
2021/01/29 13:01:33;;;;;;;6.38;4.15;;;13.70;86.80;;;;;;4945663;28;20170;-71
2021/01/29 13:04:14;;;;;;;5.72;3.72;;;13.80;86.90;;;;;;4947236;28;20042;-72
2021/01/29 13:06:48;;;;;;;6.38;3.97;;;13.70;86.70;;;;;;4946509;28;20050;-71
2021/01/29 13:09:32;;;;;;;;;;;13.70;86.70;;;;;;4947314;28;20031;-71
2021/01/29 13:12:14;;;;;;;7.85;3.60;;;13.70;86.70;;;;;;4961404;28;19918;-71
2021/01/29 13:15:15;;;;;;;7.00;3.80;;;13.60;86.50;;;;;;4945708;29;20471;-70
2021/01/29 13:17:44;;;;;;;9.10;3.78;;;13.70;86.80;;;;;;4941961;29;20086;-71
2021/01/29 13:20:12;;;;;;;6.22;3.38;;;13.70;86.80;;;;;;4927737;29;20036;-71
2021/01/29 13:22:46;;;;;;;7.22;3.67;;;13.80;87.00;;;;;;4952646;28;20098;-70
2021/01/29 13:25:17;;;;;;;7.25;4.22;;;13.80;86.90;;;;;;4945165;28;20043;-70
2021/01/29 13:27:52;;;;;;;8.95;4.18;;;13.80;86.70;;;;;;4960927;28;20126;-70
2021/01/29 13:30:24;;;;;;;11.07;3.92;;;13.80;86.70;;;;;;4946210;28;20038;-72
2021/01/29 13:32:51;;;;;;;8.57;4.00;;;13.80;86.60;;;;;;4946170;28;20028;-73
2021/01/29 13:35:32;;;;;;;7.20;3.70;;;13.80;86.60;;;;;;4961279;28;20494;-73
2021/01/29 13:38:29;;;;;;;8.95;3.70;;;13.80;86.50;;;;;;4945377;28;20115;-73
2021/01/29 13:41:12;;;;;;;7.45;3.20;;;13.80;86.50;;;;;;4945338;28;20031;-72
2021/01/29 13:43:41;;;;;;;8.85;4.00;;;13.80;86.50;;;;;;4946500;28;20578;-74
2021/01/29 13:46:32;;;;;;;7.25;3.60;;;13.80;86.50;;;;;;4945972;28;20054;-73
2021/01/29 13:49:25;;;;;;;7.47;3.90;;;13.70;86.30;;;;;;4946610;28;20035;-74
2021/01/29 13:51:52;;;;;;;10.30;3.53;;;13.70;86.30;;;;;;4946408;28;20035;-74
2021/01/29 13:54:47;;;;;;;8.27;3.50;;;13.70;86.30;;;;;;4944726;28;20027;-74
2021/01/29 13:57:34;;;;;;;8.38;3.40;;;13.60;86.10;;;;;;4932278;29;20114;-75
2021/01/29 14:00:18;;;;;;;9.05;3.63;;;13.60;86.10;;;;;;4946378;28;20483;-75
2021/01/29 14:03:09;;;;;;;10.75;3.15;;;13.60;86.20;;;;;;4944869;28;20035;-75
2021/01/29 14:05:36;;;;;;;8.93;3.75;;;13.50;86.00;;;;;;4944583;29;20043;-78
2021/01/29 14:08:05;;;;;;;10.20;3.58;;;13.50;86.00;;;;;;4944662;28;20078;-75